PWSweather.com
Personal Weather Stations
Station Observations
133525
French Quarters West Seneca , West Seneca, NY 14224

French Quarters West Seneca West Seneca, NY 14224

Lat: 42.850058, Lon: -78.799754

Elevation: 603

Station Type: Davis Vantage Vue pro2

http://westsenecaweather.com/

Latest ConditionsUpdated 7:35:01 AM EDT Wednesday, Jul 17, 2019
Currently Today's Max Today's Min Today's Average
Temperature 73.2°F22.9°C 75.9°F24.4°C 71.9°F22.2°C 73.0°F22.8°C
Dew Point 70.1°F21.2°C 71.8°F22.1°C 69.4°F20.8°C 70.1°F21.2°C
Winds 2.3 mph NW3.7 kmh NW 4.6 mph -7.4 kmh - - 1.7 mph 2.7 kmh
Wind Gusts 3.5 mph5.6 kmh 9.2 mph14.8 kmh - -
Humidity 90% 94% 84% 91%
Pressure 29.87 in1011.5 mb 29.91 in1012.9 mb 29.86 in1011.2 mb -
Precipitation - 0.03 in0.8 mm - -
Hour Temp Dew Point Humidity Winds Wind Gusts Pressure Precip Precip Rate Daily Precip Total
07:35 AM 73.2°F22.9°C 70.1°F21.2°C 90% 2.3 mph NW3.7 kmh NW 3.5 mph5.6 kmh 29.87 in1011.5 mb - 0.01 in0.3 mm 0.03 in0.8 mm
07:30 AM 73.5°F23.1°C 70.1°F21.2°C 89% 1.2 mph NNW1.9 kmh NNW 3.5 mph5.6 kmh 29.87 in1011.5 mb - 0.01 in0.3 mm 0.03 in0.8 mm
07:25 AM 73.8°F23.2°C 70.1°F21.2°C 88% 1.2 mph NW1.9 kmh NW 2.3 mph3.7 kmh 29.87 in1011.5 mb - 0.01 in0.3 mm 0.03 in0.8 mm
07:20 AM 74.2°F23.4°C 70.1°F21.2°C 87% 2.3 mph NW3.7 kmh NW 3.5 mph5.6 kmh 29.87 in1011.5 mb - 0.00 in0.0 mm 0.02 in0.5 mm
07:15 AM 74.2°F23.4°C 70.1°F21.2°C 87% 3.5 mph NNW5.6 kmh NNW 3.5 mph5.6 kmh 29.87 in1011.5 mb - 0.00 in0.0 mm 0.02 in0.5 mm
07:10 AM 74.2°F23.4°C 70.1°F21.2°C 87% 3.5 mph NNE5.6 kmh NNE 6.9 mph11.1 kmh 29.87 in1011.5 mb - 0.00 in0.0 mm 0.02 in0.5 mm
07:00 AM 74.1°F23.4°C 70.0°F21.1°C 87% 2.3 mph NNW3.7 kmh NNW 3.5 mph5.6 kmh 29.87 in1011.5 mb - 0.00 in0.0 mm 0.02 in0.5 mm
06:55 AM 74.0°F23.3°C 69.9°F21.1°C 87% 3.5 mph NW5.6 kmh NW 4.6 mph7.4 kmh 29.87 in1011.5 mb - 0.00 in0.0 mm 0.02 in0.5 mm
06:50 AM 73.8°F23.2°C 69.7°F20.9°C 87% 4.6 mph NW7.4 kmh NW 8.1 mph13.0 kmh 29.87 in1011.5 mb - 0.00 in0.0 mm 0.02 in0.5 mm
06:45 AM 73.7°F23.2°C 69.9°F21.1°C 88% 2.3 mph NW3.7 kmh NW 3.5 mph5.6 kmh 29.87 in1011.5 mb - 0.00 in0.0 mm 0.02 in0.5 mm
06:40 AM 73.6°F23.1°C 69.8°F21.0°C 88% 2.3 mph NW3.7 kmh NW 3.5 mph5.6 kmh 29.87 in1011.5 mb - 0.00 in0.0 mm 0.02 in0.5 mm
06:35 AM 73.4°F23.0°C 70.0°F21.1°C 89% 3.5 mph NW5.6 kmh NW 3.5 mph5.6 kmh 29.87 in1011.5 mb - 0.00 in0.0 mm 0.02 in0.5 mm
06:30 AM 73.3°F22.9°C 69.9°F21.1°C 89% 2.3 mph NW3.7 kmh NW 3.5 mph5.6 kmh 29.87 in1011.5 mb - 0.00 in0.0 mm 0.02 in0.5 mm
06:25 AM 73.2°F22.9°C 69.8°F21.0°C 89% 2.3 mph WNW3.7 kmh WNW 3.5 mph5.6 kmh 29.87 in1011.5 mb - 0.00 in0.0 mm 0.02 in0.5 mm
06:20 AM 73.1°F22.8°C 69.7°F20.9°C 89% 1.2 mph WNW1.9 kmh WNW 3.5 mph5.6 kmh 29.87 in1011.5 mb - 0.00 in0.0 mm 0.02 in0.5 mm
06:15 AM 73.0°F22.8°C 69.6°F20.9°C 89% Calm Calm -- 29.87 in1011.5 mb - 0.00 in0.0 mm 0.02 in0.5 mm
06:10 AM 72.9°F22.7°C 69.5°F20.8°C 89% 1.2 mph NW1.9 kmh NW 3.5 mph5.6 kmh 29.87 in1011.5 mb - 0.00 in0.0 mm 0.02 in0.5 mm
06:00 AM 72.8°F22.7°C 69.7°F20.9°C 90% 1.2 mph NW1.9 kmh NW 1.2 mph1.9 kmh 29.87 in1011.5 mb - 0.00 in0.0 mm 0.02 in0.5 mm
05:55 AM 72.8°F22.7°C 69.4°F20.8°C 89% Calm Calm 1.2 mph1.9 kmh 29.87 in1011.5 mb - 0.00 in0.0 mm 0.02 in0.5 mm
05:50 AM 72.8°F22.7°C 69.7°F20.9°C 90% 2.3 mph NW3.7 kmh NW 3.5 mph5.6 kmh 29.87 in1011.5 mb - 0.00 in0.0 mm 0.02 in0.5 mm
05:45 AM 72.8°F22.7°C 69.7°F20.9°C 90% 3.5 mph NNW5.6 kmh NNW 5.8 mph9.3 kmh 29.87 in1011.5 mb - 0.00 in0.0 mm 0.02 in0.5 mm
05:40 AM 72.7°F22.6°C 69.6°F20.9°C 90% 2.3 mph NW3.7 kmh NW 3.5 mph5.6 kmh 29.86 in1011.2 mb - 0.00 in0.0 mm 0.02 in0.5 mm
05:35 AM 72.6°F22.6°C 69.5°F20.8°C 90% 1.2 mph NW1.9 kmh NW 2.3 mph3.7 kmh 29.86 in1011.2 mb - 0.00 in0.0 mm 0.02 in0.5 mm
05:30 AM 72.6°F22.6°C 69.5°F20.8°C 90% 1.2 mph N1.9 kmh N 2.3 mph3.7 kmh 29.87 in1011.5 mb - 0.00 in0.0 mm 0.02 in0.5 mm
05:25 AM 72.5°F22.5°C 69.4°F20.8°C 90% 2.3 mph ENE3.7 kmh ENE 3.5 mph5.6 kmh 29.87 in1011.5 mb - 0.00 in0.0 mm 0.02 in0.5 mm
05:20 AM 72.5°F22.5°C 69.4°F20.8°C 90% 2.3 mph NW3.7 kmh NW 3.5 mph5.6 kmh 29.86 in1011.2 mb - 0.00 in0.0 mm 0.02 in0.5 mm
05:15 AM 72.4°F22.4°C 69.6°F20.9°C 91% 2.3 mph NW3.7 kmh NW 4.6 mph7.4 kmh 29.86 in1011.2 mb - 0.00 in0.0 mm 0.02 in0.5 mm
05:10 AM 72.3°F22.4°C 69.5°F20.8°C 91% 1.2 mph NW1.9 kmh NW 3.5 mph5.6 kmh 29.86 in1011.2 mb - 0.00 in0.0 mm 0.02 in0.5 mm
05:00 AM 72.2°F22.3°C 69.4°F20.8°C 91% 2.3 mph NW3.7 kmh NW 3.5 mph5.6 kmh 29.86 in1011.2 mb - 0.00 in0.0 mm 0.02 in0.5 mm
04:55 AM 72.1°F22.3°C 69.6°F20.9°C 92% 1.2 mph NW1.9 kmh NW 3.5 mph5.6 kmh 29.86 in1011.2 mb - 0.00 in0.0 mm 0.02 in0.5 mm
04:50 AM 72.0°F22.2°C 69.5°F20.8°C 92% 1.2 mph NNW1.9 kmh NNW 4.6 mph7.4 kmh 29.86 in1011.2 mb - 0.00 in0.0 mm 0.02 in0.5 mm
04:45 AM 71.9°F22.2°C 69.5°F20.8°C 92% 1.2 mph NNW1.9 kmh NNW 3.5 mph5.6 kmh 29.86 in1011.2 mb - 0.00 in0.0 mm 0.02 in0.5 mm
04:40 AM 71.9°F22.2°C 69.4°F20.8°C 92% 2.3 mph NW3.7 kmh NW 3.5 mph5.6 kmh 29.86 in1011.2 mb - 0.00 in0.0 mm 0.02 in0.5 mm
04:35 AM 71.9°F22.2°C 69.4°F20.8°C 92% 1.2 mph NW1.9 kmh NW 3.5 mph5.6 kmh 29.86 in1011.2 mb - 0.00 in0.0 mm 0.02 in0.5 mm
04:30 AM 71.9°F22.2°C 69.8°F21.0°C 93% 1.2 mph NW1.9 kmh NW 2.3 mph3.7 kmh 29.86 in1011.2 mb - 0.00 in0.0 mm 0.02 in0.5 mm
04:25 AM 71.9°F22.2°C 69.8°F21.0°C 93% 1.2 mph NW1.9 kmh NW 2.3 mph3.7 kmh 29.86 in1011.2 mb - 0.00 in0.0 mm 0.02 in0.5 mm
04:20 AM 71.9°F22.2°C 69.8°F21.0°C 93% 2.3 mph NW3.7 kmh NW 4.6 mph7.4 kmh 29.86 in1011.2 mb - 0.00 in0.0 mm 0.02 in0.5 mm
04:15 AM 71.9°F22.2°C 69.8°F21.0°C 93% 2.3 mph NW3.7 kmh NW 3.5 mph5.6 kmh 29.86 in1011.2 mb - 0.00 in0.0 mm 0.02 in0.5 mm
04:10 AM 71.9°F22.2°C 69.8°F21.0°C 93% 2.3 mph NW3.7 kmh NW 2.3 mph3.7 kmh 29.86 in1011.2 mb - 0.00 in0.0 mm 0.02 in0.5 mm
04:00 AM 72.0°F22.2°C 70.2°F21.2°C 94% 2.3 mph NW3.7 kmh NW 3.5 mph5.6 kmh 29.86 in1011.2 mb - 0.00 in0.0 mm 0.02 in0.5 mm
03:55 AM 72.0°F22.2°C 70.2°F21.2°C 94% 1.2 mph NW1.9 kmh NW 4.6 mph7.4 kmh 29.86 in1011.2 mb - 0.00 in0.0 mm 0.02 in0.5 mm
03:50 AM 72.0°F22.2°C 70.2°F21.2°C 94% 1.2 mph WNW1.9 kmh WNW 1.2 mph1.9 kmh 29.86 in1011.2 mb - 0.00 in0.0 mm 0.02 in0.5 mm
03:45 AM 72.1°F22.3°C 70.0°F21.1°C 93% Calm Calm 1.2 mph1.9 kmh 29.86 in1011.2 mb - 0.00 in0.0 mm 0.02 in0.5 mm
03:40 AM 72.1°F22.3°C 70.3°F21.3°C 94% 1.2 mph NW1.9 kmh NW 2.3 mph3.7 kmh 29.86 in1011.2 mb - 0.00 in0.0 mm 0.02 in0.5 mm
03:35 AM 72.2°F22.3°C 70.4°F21.3°C 94% Calm Calm 2.3 mph3.7 kmh 29.87 in1011.5 mb - 0.00 in0.0 mm 0.02 in0.5 mm
03:30 AM 72.2°F22.3°C 70.4°F21.3°C 94% Calm Calm 2.3 mph3.7 kmh 29.87 in1011.5 mb - 0.00 in0.0 mm 0.02 in0.5 mm
03:25 AM 72.2°F22.3°C 70.4°F21.3°C 94% Calm Calm 1.2 mph1.9 kmh 29.87 in1011.5 mb - 0.00 in0.0 mm 0.02 in0.5 mm
03:20 AM 72.3°F22.4°C 70.2°F21.2°C 93% 1.2 mph NW1.9 kmh NW 2.3 mph3.7 kmh 29.87 in1011.5 mb - 0.00 in0.0 mm 0.02 in0.5 mm
03:15 AM 72.3°F22.4°C 70.2°F21.2°C 93% 1.2 mph NW1.9 kmh NW 2.3 mph3.7 kmh 29.87 in1011.5 mb - 0.00 in0.0 mm 0.02 in0.5 mm
03:10 AM 72.4°F22.4°C 70.3°F21.3°C 93% 1.2 mph NW1.9 kmh NW 2.3 mph3.7 kmh 29.87 in1011.5 mb - 0.00 in0.0 mm 0.02 in0.5 mm
03:00 AM 72.6°F22.6°C 70.5°F21.4°C 93% 2.3 mph WNW3.7 kmh WNW 3.5 mph5.6 kmh 29.88 in1011.9 mb - 0.00 in0.0 mm 0.02 in0.5 mm
02:55 AM 72.7°F22.6°C 70.6°F21.4°C 93% 1.2 mph WNW1.9 kmh WNW 2.3 mph3.7 kmh 29.87 in1011.5 mb - 0.00 in0.0 mm 0.02 in0.5 mm
02:50 AM 72.8°F22.7°C 70.7°F21.5°C 93% Calm Calm 1.2 mph1.9 kmh 29.88 in1011.9 mb - 0.00 in0.0 mm 0.02 in0.5 mm
02:45 AM 72.8°F22.7°C 70.7°F21.5°C 93% Calm Calm 1.2 mph1.9 kmh 29.88 in1011.9 mb - 0.00 in0.0 mm 0.02 in0.5 mm
02:40 AM 72.8°F22.7°C 70.7°F21.5°C 93% 2.3 mph NW3.7 kmh NW 3.5 mph5.6 kmh 29.88 in1011.9 mb - 0.00 in0.0 mm 0.02 in0.5 mm
02:35 AM 72.8°F22.7°C 70.7°F21.5°C 93% 1.2 mph NW1.9 kmh NW 3.5 mph5.6 kmh 29.88 in1011.9 mb - 0.00 in0.0 mm 0.02 in0.5 mm
02:30 AM 72.9°F22.7°C 70.7°F21.5°C 93% 3.5 mph NW5.6 kmh NW 3.5 mph5.6 kmh 29.89 in1012.2 mb - 0.00 in0.0 mm 0.02 in0.5 mm
02:25 AM 72.9°F22.7°C 70.8°F21.6°C 93% 3.5 mph NW5.6 kmh NW 4.6 mph7.4 kmh 29.89 in1012.2 mb - 0.00 in0.0 mm 0.02 in0.5 mm
02:20 AM 72.9°F22.7°C 70.8°F21.6°C 93% 1.2 mph NNW1.9 kmh NNW 4.6 mph7.4 kmh 29.89 in1012.2 mb - 0.00 in0.0 mm 0.02 in0.5 mm
02:15 AM 73.0°F22.8°C 70.8°F21.6°C 93% 2.3 mph NW3.7 kmh NW 4.6 mph7.4 kmh 29.89 in1012.2 mb - 0.00 in0.0 mm 0.02 in0.5 mm
02:10 AM 72.9°F22.7°C 70.8°F21.6°C 93% 1.2 mph WNW1.9 kmh WNW 3.5 mph5.6 kmh 29.89 in1012.2 mb - 0.00 in0.0 mm 0.02 in0.5 mm
02:00 AM 72.8°F22.7°C 70.7°F21.5°C 93% 2.3 mph NNW3.7 kmh NNW 3.5 mph5.6 kmh 29.90 in1012.5 mb - 0.01 in0.3 mm 0.02 in0.5 mm
01:55 AM 72.9°F22.7°C 70.8°F21.6°C 93% 1.2 mph NNW1.9 kmh NNW 3.5 mph5.6 kmh 29.90 in1012.5 mb - 0.01 in0.3 mm 0.02 in0.5 mm
01:50 AM 72.8°F22.7°C 70.7°F21.5°C 93% 3.5 mph NW5.6 kmh NW 5.8 mph9.3 kmh 29.90 in1012.5 mb - 0.01 in0.3 mm 0.02 in0.5 mm
01:45 AM 72.8°F22.7°C 70.7°F21.5°C 93% 2.3 mph NW3.7 kmh NW 4.6 mph7.4 kmh 29.91 in1012.9 mb - 0.01 in0.3 mm 0.02 in0.5 mm
01:40 AM 72.8°F22.7°C 70.7°F21.5°C 93% 1.2 mph N1.9 kmh N 3.5 mph5.6 kmh 29.91 in1012.9 mb - 0.02 in0.5 mm 0.02 in0.5 mm
01:35 AM 72.9°F22.7°C 70.4°F21.3°C 92% 2.3 mph N3.7 kmh N 4.6 mph7.4 kmh 29.91 in1012.9 mb - 0.02 in0.5 mm 0.02 in0.5 mm
01:30 AM 72.9°F22.7°C 70.4°F21.3°C 92% 2.3 mph NW3.7 kmh NW 4.6 mph7.4 kmh 29.91 in1012.9 mb - 0.02 in0.5 mm 0.02 in0.5 mm
01:25 AM 72.9°F22.7°C 70.4°F21.3°C 92% 1.2 mph NNW1.9 kmh NNW -- 29.91 in1012.9 mb - 0.02 in0.5 mm 0.02 in0.5 mm
01:20 AM 72.9°F22.7°C 70.2°F21.2°C 91% Calm Calm 2.3 mph3.7 kmh 29.91 in1012.9 mb - 0.02 in0.5 mm 0.02 in0.5 mm
01:15 AM 73.0°F22.8°C 70.2°F21.2°C 91% 1.2 mph NNE1.9 kmh NNE 3.5 mph5.6 kmh 29.91 in1012.9 mb - 0.02 in0.5 mm 0.02 in0.5 mm
01:10 AM 73.0°F22.8°C 69.9°F21.1°C 90% 1.2 mph NNE1.9 kmh NNE 3.5 mph5.6 kmh 29.91 in1012.9 mb - 0.02 in0.5 mm 0.02 in0.5 mm
01:00 AM 73.2°F22.9°C 69.8°F21.0°C 89% 1.2 mph NW1.9 kmh NW 3.5 mph5.6 kmh 29.91 in1012.9 mb - 0.01 in0.3 mm 0.01 in0.3 mm
12:55 AM 73.4°F23.0°C 70.0°F21.1°C 89% 1.2 mph WNW1.9 kmh WNW 3.5 mph5.6 kmh 29.91 in1012.9 mb - 0.01 in0.3 mm 0.01 in0.3 mm
12:50 AM 73.7°F23.2°C 69.9°F21.1°C 88% 1.2 mph N1.9 kmh N 3.5 mph5.6 kmh 29.91 in1012.9 mb - 0.01 in0.3 mm 0.01 in0.3 mm
12:45 AM 74.0°F23.3°C 69.9°F21.1°C 87% 1.2 mph NNW1.9 kmh NNW 4.6 mph7.4 kmh 29.91 in1012.9 mb - 0.01 in0.3 mm 0.01 in0.3 mm
12:40 AM 74.4°F23.6°C 69.9°F21.1°C 86% Calm Calm 3.5 mph5.6 kmh 29.91 in1012.9 mb - 0.00 in0.0 mm 0.00 in0.0 mm
12:35 AM 74.7°F23.7°C 69.9°F21.1°C 85% Calm Calm 1.2 mph1.9 kmh 29.91 in1012.9 mb - 0.00 in0.0 mm 0.00 in0.0 mm
12:30 AM 74.9°F23.8°C 70.1°F21.2°C 85% 2.3 mph NNE3.7 kmh NNE 8.1 mph13.0 kmh 29.91 in1012.9 mb - 0.00 in0.0 mm 0.00 in0.0 mm
12:25 AM 75.3°F24.1°C 70.1°F21.2°C 84% 3.5 mph NE5.6 kmh NE 9.2 mph14.8 kmh 29.91 in1012.9 mb - 0.00 in0.0 mm 0.00 in0.0 mm
12:20 AM 75.6°F24.2°C 70.8°F21.6°C 85% 2.3 mph NNW3.7 kmh NNW 3.5 mph5.6 kmh 29.91 in1012.9 mb - 0.00 in0.0 mm 0.00 in0.0 mm
12:15 AM 75.9°F24.4°C 71.4°F21.9°C 86% 2.3 mph NNW3.7 kmh NNW 8.1 mph13.0 kmh 29.91 in1012.9 mb - 0.00 in0.0 mm 0.00 in0.0 mm
12:10 AM 75.9°F24.4°C 71.7°F22.1°C 87% 2.3 mph NW3.7 kmh NW 4.6 mph7.4 kmh 29.91 in1012.9 mb - 0.00 in0.0 mm 0.00 in0.0 mm
12:00 AM 75.6°F24.2°C 71.8°F22.1°C 88% 2.3 mph NW3.7 kmh NW 9.2 mph14.8 kmh 29.90 in1012.5 mb - 0.00 in0.0 mm 0.00 in0.0 mm